Time;durP1;ratioP1;P1;durP2;ratioP2;P2;SDS_P1;SDS_P2;PMS_P1;PMS_P2;Temp;Humidity;BMP_temperature;BMP_pressure;BME280_temperature;BME280_humidity;BME280_pressure;Samples;Min_cycle;Max_cycle;Signal;HPM_P1;HPM_P2
2021/10/08 00:00:19;;;;;;;11.60;10.40;;;7.60;99.90;;;6.19;100.00;99112.31;5033355;28;20508;-73
2021/10/08 00:02:46;;;;;;;16.30;9.57;;;7.40;99.90;;;6.09;100.00;99112.44;5030173;28;20451;-72
2021/10/08 00:05:13;;;;;;;11.93;10.73;;;7.40;99.90;;;6.05;100.00;99116.41;5029978;28;20492;-72
2021/10/08 00:07:40;;;;;;;13.20;10.83;;;7.30;99.90;;;6.12;100.00;99116.63;5034301;28;20447;-72
2021/10/08 00:10:09;;;;;;;13.40;11.83;;;7.40;99.90;;;6.10;100.00;99113.25;5032378;28;20548;-72
2021/10/08 00:12:39;;;;;;;13.10;11.67;;;7.30;99.90;;;6.18;100.00;99110.63;5025956;28;20457;-72
2021/10/08 00:15:08;;;;;;;13.20;11.13;;;7.40;99.90;;;6.26;100.00;99117.03;5022667;28;20561;-72
2021/10/08 00:17:35;;;;;;;16.03;13.13;;;7.50;99.90;;;6.27;100.00;99116.03;5028217;28;20482;-72
2021/10/08 00:20:02;;;;;;;18.23;16.17;;;7.50;99.90;;;6.19;100.00;99106.94;5027516;28;20469;-71
2021/10/08 00:22:29;;;;;;;18.03;14.40;;;7.50;99.90;;;6.22;100.00;99108.47;5031383;28;20468;-73
2021/10/08 00:24:55;;;;;;;16.10;14.23;;;7.50;99.90;;;6.26;100.00;99103.59;5029139;28;20983;-72
2021/10/08 00:27:24;;;;;;;16.03;14.33;;;7.50;99.90;;;6.25;100.00;99116.19;5042879;28;20538;-71
2021/10/08 00:29:51;;;;;;;17.07;14.77;;;7.50;99.90;;;6.11;100.00;99112.25;5030362;28;20482;-72
2021/10/08 00:32:18;;;;;;;15.60;13.30;;;7.40;99.90;;;6.11;100.00;99123.00;5037503;28;20450;-72
2021/10/08 00:34:45;;;;;;;14.27;12.77;;;7.40;99.90;;;6.05;100.00;99112.91;5027003;28;20569;-71
2021/10/08 00:37:12;;;;;;;17.20;12.03;;;7.30;99.90;;;6.12;100.00;99127.34;5028475;28;20459;-72
2021/10/08 00:39:39;;;;;;;14.60;13.10;;;7.40;99.90;;;6.00;100.00;99115.19;5029130;28;20454;-72
2021/10/08 00:42:07;;;;;;;13.77;12.47;;;7.30;99.90;;;5.99;100.00;99114.34;5025368;28;20553;-71
2021/10/08 00:44:35;;;;;;;14.47;13.00;;;7.30;99.90;;;6.00;100.00;99113.34;5027096;28;20856;-73
2021/10/08 00:47:11;;;;;;;17.03;14.23;;;7.30;99.90;;;6.08;100.00;99109.91;5029607;28;20562;-72
2021/10/08 00:49:38;;;;;;;14.23;12.80;;;7.40;99.90;;;5.91;100.00;99104.41;5029015;28;20473;-73
2021/10/08 00:52:06;;;;;;;14.67;12.90;;;7.30;99.90;;;5.87;100.00;99112.94;5029373;28;20542;-73
2021/10/08 00:54:33;;;;;;;12.57;11.37;;;7.20;99.90;;;5.93;100.00;99109.63;5030170;28;20490;-72
2021/10/08 00:57:00;;;;;;;14.37;12.57;;;7.20;99.90;;;6.16;100.00;99106.41;5028006;28;20458;-72
2021/10/08 00:59:27;;;;;;;14.60;13.10;;;7.30;99.90;;;5.96;100.00;99110.13;5030313;28;20454;-73
2021/10/08 01:01:57;;;;;;;15.20;13.17;;;7.30;99.90;;;5.84;100.00;99105.19;5026615;28;20958;-72
2021/10/08 01:04:25;;;;;;;16.63;13.40;;;7.20;99.90;;;5.82;100.00;99105.34;5027278;28;20524;-72
2021/10/08 01:06:52;;;;;;;12.80;11.60;;;7.10;99.90;;;5.79;100.00;99100.31;5029555;28;20457;-72
2021/10/08 01:09:19;;;;;;;13.90;12.40;;;7.10;99.90;;;5.78;100.00;99104.84;5025495;28;20894;-72
2021/10/08 01:11:46;;;;;;;15.20;13.70;;;7.10;99.90;;;5.75;100.00;99115.03;5027876;28;20955;-72
2021/10/08 01:14:14;;;;;;;15.20;13.63;;;7.00;99.90;;;5.72;100.00;99110.00;5027533;28;20490;-72
2021/10/08 01:16:41;;;;;;;18.50;16.60;;;7.00;99.90;;;5.94;100.00;99098.72;5028975;28;20508;-72
2021/10/08 01:19:11;;;;;;;21.30;16.47;;;7.20;99.90;;;5.84;100.00;99071.19;5027276;28;21049;-73
2021/10/08 01:21:39;;;;;;;17.37;14.63;;;7.20;99.90;;;6.01;100.00;99109.69;5022489;28;20448;-73
2021/10/08 01:24:06;;;;;;;22.53;16.10;;;7.20;99.90;;;5.87;100.00;99111.09;5029364;28;20459;-73
2021/10/08 01:26:34;;;;;;;17.97;15.00;;;7.20;99.90;;;5.84;100.00;99108.75;5026712;28;20549;-72
2021/10/08 01:29:00;;;;;;;18.03;15.33;;;7.20;99.90;;;5.82;100.00;99100.84;5028471;28;20967;-73
2021/10/08 01:31:27;;;;;;;16.63;15.00;;;7.20;99.90;;;5.88;100.00;99099.38;5027638;28;20962;-74
2021/10/08 01:33:54;;;;;;;17.23;15.20;;;7.20;99.90;;;6.13;100.00;99090.63;5028052;28;20636;-73
2021/10/08 01:36:21;;;;;;;14.33;12.83;;;7.30;99.90;;;6.18;100.00;99094.53;5024741;28;20567;-73
2021/10/08 01:38:50;;;;;;;15.83;13.77;;;7.40;99.90;;;5.86;100.00;99069.19;5038335;28;20553;-73
2021/10/08 01:41:17;;;;;;;16.43;14.73;;;7.40;99.90;;;6.04;100.00;99092.44;5028241;28;20952;-73
2021/10/08 01:43:43;;;;;;;18.57;15.73;;;7.30;99.90;;;5.96;100.00;99090.53;5030185;28;20446;-73
2021/10/08 01:46:10;;;;;;;24.13;16.10;;;7.30;99.90;;;6.04;100.00;99093.28;5023763;28;21062;-73
2021/10/08 01:48:37;;;;;;;16.47;14.73;;;7.40;99.90;;;6.23;100.00;99100.25;5025932;28;21068;-73
2021/10/08 01:51:04;;;;;;;14.97;13.47;;;7.50;99.90;;;6.17;100.00;99089.31;5022704;28;20466;-73
2021/10/08 01:53:31;;;;;;;14.90;13.57;;;7.50;99.90;;;6.08;100.00;99099.16;5027901;28;20477;-72
2021/10/08 01:55:59;;;;;;;17.33;15.53;;;7.40;99.90;;;6.23;100.00;99092.19;5025073;28;21062;-72
2021/10/08 01:58:26;;;;;;;15.60;13.40;;;7.50;99.90;;;6.29;100.00;99090.72;5028307;28;20466;-72
2021/10/08 02:00:53;;;;;;;15.73;14.20;;;7.60;99.90;;;6.27;100.00;99078.44;5021679;28;20783;-72
2021/10/08 02:03:20;;;;;;;15.07;13.67;;;7.50;99.90;;;6.28;100.00;99077.44;5027318;28;21029;-72
2021/10/08 02:05:47;;;;;;;17.03;14.87;;;7.50;99.90;;;6.24;100.00;99071.56;5025796;28;20481;-72
2021/10/08 02:08:14;;;;;;;14.90;13.40;;;7.50;99.90;;;6.23;100.00;99072.59;5027253;28;20461;-73
2021/10/08 02:10:41;;;;;;;17.53;13.87;;;7.50;99.90;;;6.15;100.00;99070.72;5026725;28;20557;-72
2021/10/08 02:13:09;;;;;;;16.37;13.50;;;7.50;99.90;;;6.14;100.00;99071.72;5025819;28;20446;-73
2021/10/08 02:15:36;;;;;;;17.63;15.70;;;7.40;99.90;;;5.98;100.00;99068.88;5027780;28;20478;-72
2021/10/08 02:18:03;;;;;;;16.73;15.00;;;7.30;99.90;;;5.92;100.00;99062.34;5026561;28;20459;-72
2021/10/08 02:20:31;;;;;;;18.43;15.73;;;7.30;99.90;;;5.94;100.00;99077.25;5025890;28;20596;-72
2021/10/08 02:22:58;;;;;;;19.17;17.17;;;7.30;99.90;;;5.81;100.00;99060.75;5023900;28;21013;-73
2021/10/08 02:25:24;;;;;;;19.20;16.87;;;7.20;99.90;;;5.77;100.00;99075.50;5028195;28;20548;-73
2021/10/08 02:27:51;;;;;;;16.17;14.57;;;7.10;99.90;;;5.83;100.00;99077.53;5023869;28;20494;-72
2021/10/08 02:30:20;;;;;;;19.00;17.00;;;7.10;99.90;;;5.72;100.00;99075.13;5022367;28;21010;-72
2021/10/08 02:32:47;;;;;;;20.73;18.67;;;7.10;99.90;;;5.61;100.00;99071.72;5025026;28;20466;-73
2021/10/08 02:35:14;;;;;;;21.13;19.13;;;7.00;99.90;;;5.66;100.00;99074.75;5038169;28;20593;-72
2021/10/08 02:37:42;;;;;;;23.50;21.30;;;7.00;99.90;;;5.59;100.00;99072.84;5021831;28;20556;-73
2021/10/08 02:40:10;;;;;;;22.77;20.70;;;7.00;99.90;;;5.67;100.00;99076.44;5026898;28;20955;-73
2021/10/08 02:42:37;;;;;;;22.57;20.37;;;6.90;99.90;;;5.42;100.00;99050.47;5027026;28;20470;-72
2021/10/08 02:45:05;;;;;;;20.73;17.30;;;6.90;99.90;;;5.54;100.00;99070.66;5026282;28;20569;-73
2021/10/08 02:47:33;;;;;;;18.70;16.90;;;6.90;99.90;;;5.49;100.00;99068.44;5023093;28;20501;-72
2021/10/08 02:50:00;;;;;;;20.20;18.10;;;6.90;99.90;;;5.49;100.00;99068.44;5031715;28;20513;-74
2021/10/08 02:52:27;;;;;;;19.50;16.90;;;6.80;99.90;;;5.58;100.00;99072.03;5035822;28;20486;-73
2021/10/08 02:54:54;;;;;;;18.40;14.47;;;6.80;99.90;;;5.53;100.00;99071.63;5033123;28;20569;-74
2021/10/08 02:57:21;;;;;;;16.10;14.40;;;6.80;99.90;;;5.49;100.00;99072.97;5033512;28;20472;-74
2021/10/08 02:59:48;;;;;;;17.00;14.90;;;6.80;99.90;;;5.31;100.00;99071.16;5033181;28;20453;-74
2021/10/08 03:02:15;;;;;;;16.93;15.00;;;6.70;99.90;;;5.22;100.00;99072.94;5033306;28;20450;-74
2021/10/08 03:04:43;;;;;;;20.27;17.10;;;6.60;99.90;;;5.14;100.00;99074.72;5030260;28;20565;-75
2021/10/08 03:07:10;;;;;;;18.47;16.50;;;6.50;99.90;;;5.26;100.00;99073.47;5034372;28;20552;-73
2021/10/08 03:09:37;;;;;;;18.10;16.37;;;6.60;99.90;;;5.28;100.00;99071.47;5027713;28;20565;-74
2021/10/08 03:12:05;;;;;;;20.33;17.70;;;6.50;99.90;;;5.12;100.00;99053.41;5031298;28;20452;-74
2021/10/08 03:14:32;;;;;;;17.10;15.50;;;6.50;99.90;;;5.33;100.00;99074.53;5031709;28;20980;-72
2021/10/08 03:16:59;;;;;;;15.90;14.30;;;6.60;99.90;;;5.26;100.00;99068.13;5036036;28;20485;-72
2021/10/08 03:19:26;;;;;;;23.13;15.90;;;6.50;99.90;;;5.09;100.00;99067.13;5034197;28;20983;-73
2021/10/08 03:21:54;;;;;;;18.53;15.10;;;6.50;99.90;;;5.03;100.00;99063.22;5028823;28;20516;-73
2021/10/08 03:24:21;;;;;;;18.37;16.47;;;6.40;99.90;;;4.95;100.00;99073.88;5029804;28;20490;-73
2021/10/08 03:26:48;;;;;;;17.47;15.43;;;6.30;99.90;;;4.93;100.00;99067.84;5035537;28;20462;-73
2021/10/08 03:29:15;;;;;;;20.70;18.50;;;6.30;99.90;;;5.04;100.00;99074.78;5032551;28;20560;-72
2021/10/08 03:31:42;;;;;;;22.07;17.47;;;6.30;99.90;;;4.96;100.00;99078.25;5034929;28;20454;-71
2021/10/08 03:34:09;;;;;;;19.53;17.10;;;6.30;99.90;;;4.93;100.00;99073.19;5032373;28;20839;-74
2021/10/08 03:36:42;;;;;;;20.40;17.20;;;6.30;99.90;;;5.06;100.00;99080.84;5029061;28;20561;-74
2021/10/08 03:39:11;;;;;;;18.10;16.30;;;6.30;99.90;;;4.97;100.00;99074.56;5027901;28;20728;-74
2021/10/08 03:41:40;;;;;;;17.60;15.80;;;6.30;99.90;;;4.95;100.00;99077.38;5032274;28;20552;-74
2021/10/08 03:44:08;;;;;;;17.97;15.17;;;6.30;99.90;;;4.89;100.00;99082.50;5030589;28;20816;-74
2021/10/08 03:46:40;;;;;;;18.80;16.40;;;6.20;99.90;;;4.91;100.00;99081.38;5034038;28;20955;-74
2021/10/08 03:49:14;;;;;;;17.73;15.93;;;6.20;99.90;;;4.86;100.00;99083.69;5042401;28;20454;-74
2021/10/08 03:51:43;;;;;;;20.93;17.30;;;6.20;99.90;;;4.91;100.00;99085.88;5032748;28;20543;-74
2021/10/08 03:54:13;;;;;;;20.03;16.70;;;6.20;99.90;;;4.87;100.00;99077.31;5033741;28;20993;-72
2021/10/08 03:56:40;;;;;;;19.37;17.27;;;6.20;99.90;;;4.90;100.00;99086.88;5032361;28;20931;-74
2021/10/08 03:59:08;;;;;;;20.23;15.67;;;6.20;99.90;;;4.91;100.00;99075.16;5035104;28;20545;-74
2021/10/08 04:01:36;;;;;;;18.33;16.30;;;6.20;99.90;;;4.89;100.00;99082.50;5031677;28;20458;-73
2021/10/08 04:04:05;;;;;;;19.17;16.67;;;6.20;99.90;;;4.89;100.00;99082.50;5030047;28;20470;-73
2021/10/08 04:06:33;;;;;;;17.23;15.40;;;6.20;99.90;;;4.88;100.00;99080.81;5027379;28;20446;-72
2021/10/08 04:09:00;;;;;;;18.13;15.47;;;6.20;99.90;;;4.65;100.00;99054.50;5030633;28;20473;-73
2021/10/08 04:11:29;;;;;;;22.20;18.90;;;6.20;99.90;;;4.81;100.00;99085.94;5030680;28;20454;-73
2021/10/08 04:13:56;;;;;;;18.73;16.93;;;6.10;99.90;;;4.81;100.00;99088.63;5028764;28;20466;-74
2021/10/08 04:16:23;;;;;;;19.60;16.57;;;6.10;99.90;;;4.76;100.00;99083.72;5025657;28;20553;-74
2021/10/08 04:18:50;;;;;;;131.40;69.80;;;6.10;99.90;;;4.79;100.00;99083.44;5029005;28;20458;-73
2021/10/08 04:21:17;;;;;;;70.23;44.17;;;6.10;99.90;;;4.84;100.00;99079.47;5029446;28;20882;-73
2021/10/08 04:23:44;;;;;;;47.37;32.67;;;6.10;99.90;;;5.02;100.00;99087.50;5028981;28;20454;-73
2021/10/08 04:26:11;;;;;;;31.10;23.57;;;6.20;99.90;;;4.97;100.00;99079.91;5027948;28;20482;-74
2021/10/08 04:28:40;;;;;;;32.60;21.57;;;6.30;99.90;;;4.86;100.00;99067.59;5029116;28;20553;-74
2021/10/08 04:31:07;;;;;;;29.17;22.27;;;6.30;99.90;;;4.93;100.00;99078.56;5029802;28;20564;-73
2021/10/08 04:33:34;;;;;;;30.13;22.97;;;6.30;99.90;;;4.93;100.00;99075.88;5026209;28;20475;-73
2021/10/08 04:36:02;;;;;;;24.23;20.90;;;6.20;99.90;;;5.17;100.00;99085.09;5027816;28;20982;-74
2021/10/08 04:38:30;;;;;;;22.47;19.70;;;6.40;99.90;;;5.12;100.00;99087.41;5025223;28;20555;-74
2021/10/08 04:40:58;;;;;;;22.30;19.50;;;6.40;99.90;;;5.09;100.00;99075.16;5028150;28;20581;-74
2021/10/08 04:43:25;;;;;;;25.07;19.30;;;6.40;99.90;;;5.08;100.00;99074.34;5025105;28;20967;-75
2021/10/08 04:45:53;;;;;;;29.60;21.87;;;6.30;99.90;;;5.16;100.00;99080.75;5030994;28;20478;-75
2021/10/08 04:48:21;;;;;;;21.83;19.60;;;6.40;99.90;;;5.39;100.00;99090.00;5034556;28;20484;-74
2021/10/08 04:50:48;;;;;;;22.67;19.27;;;6.50;99.90;;;5.26;100.00;99092.22;5028941;28;20923;-75
2021/10/08 04:53:18;;;;;;;26.30;20.07;;;6.50;99.90;;;5.39;100.00;99089.16;5031093;28;20963;-75
2021/10/08 04:55:45;;;;;;;27.47;20.03;;;6.60;99.90;;;5.49;100.00;99089.03;5033885;28;20478;-73
2021/10/08 04:58:13;;;;;;;24.77;19.93;;;6.70;99.90;;;5.81;100.00;99087.56;5031406;28;20512;-75
2021/10/08 05:00:40;;;;;;;25.70;21.13;;;6.90;99.90;;;5.76;100.00;99092.59;5029920;28;20490;-73
2021/10/08 05:03:11;;;;;;;23.17;20.10;;;6.90;99.90;;;5.84;100.00;99087.28;5034679;28;21009;-84
2021/10/08 05:05:38;;;;;;;19.37;16.87;;;7.00;99.90;;;6.01;100.00;99079.31;5019527;28;20852;-84
2021/10/08 05:08:07;;;;;;;24.67;19.00;;;7.10;99.90;;;6.12;100.00;99084.41;5036232;28;20454;-83
2021/10/08 05:10:34;;;;;;;21.90;19.60;;;7.30;99.90;;;6.19;100.00;99090.84;5033347;28;20553;-85
2021/10/08 05:13:01;;;;;;;18.53;16.53;;;7.40;99.90;;;6.15;100.00;99094.84;5041372;28;20486;-84
2021/10/08 05:15:28;;;;;;;24.03;17.40;;;7.40;99.90;;;6.23;100.00;99096.72;5028371;28;20577;-85
2021/10/08 05:17:55;;;;;;;19.73;17.73;;;7.40;99.90;;;6.40;100.00;99102.16;5029491;28;20556;-84
2021/10/08 05:20:23;;;;;;;19.30;16.67;;;7.60;99.90;;;6.58;100.00;99102.03;5025335;28;20533;-78
2021/10/08 05:22:50;;;;;;;22.40;19.90;;;7.70;99.90;;;6.85;100.00;99095.59;5023952;28;20539;-78
2021/10/08 05:25:18;;;;;;;24.00;18.67;;;7.90;99.90;;;6.88;100.00;99084.50;5025276;28;20572;-79
2021/10/08 05:27:45;;;;;;;25.43;18.53;;;8.10;99.90;;;7.14;100.00;99105.03;5027199;28;20542;-81
2021/10/08 05:30:14;;;;;;;22.50;19.20;;;8.20;99.90;;;6.91;99.59;99104.84;5026162;28;20512;-78
2021/10/08 05:32:42;;;;;;;18.13;15.83;;;8.20;97.10;;;6.73;100.00;99102.28;5024158;28;20624;-80
2021/10/08 05:35:11;;;;;;;17.33;15.17;;;8.00;99.80;;;7.00;100.00;99098.44;5020065;28;20483;-83
2021/10/08 05:37:40;;;;;;;25.70;19.10;;;8.20;99.90;;;7.34;100.00;99104.72;5020207;28;20532;-84
2021/10/08 05:40:09;;;;;;;23.30;15.20;;;8.30;99.90;;;7.26;99.69;99091.25;5024693;28;20482;-83
2021/10/08 05:42:36;;;;;;;15.73;13.87;;;8.50;99.40;;;7.45;98.90;99092.75;5027138;28;20526;-74
2021/10/08 05:45:04;;;;;;;16.43;14.53;;;8.60;98.10;;;7.67;99.77;99093.09;5023727;28;20482;-70
2021/10/08 05:47:31;;;;;;;14.17;12.77;;;8.70;99.40;;;7.58;99.42;99089.56;5023688;28;21070;-72
2021/10/08 05:49:58;;;;;;;15.47;13.63;;;8.70;97.90;;;7.73;98.94;99087.03;5025656;28;20513;-72
2021/10/08 05:52:25;;;;;;;13.80;12.33;;;8.90;98.20;;;7.62;97.70;99097.13;5025882;28;20548;-72
2021/10/08 05:54:53;;;;;;;16.07;13.73;;;8.80;96.20;;;7.59;98.79;99093.94;5022734;28;20564;-72
2021/10/08 05:57:20;;;;;;;14.63;12.97;;;8.80;96.80;;;7.85;98.78;99100.94;5026735;28;20967;-72
2021/10/08 05:59:48;;;;;;;15.50;13.90;;;8.90;98.20;;;7.93;97.63;99096.38;5023233;28;20481;-68
2021/10/08 06:02:15;;;;;;;14.83;13.20;;;9.00;95.80;;;7.96;97.64;99097.06;5020812;28;20462;-70
2021/10/08 06:04:42;;;;;;;16.17;14.23;;;9.00;96.70;;;8.01;96.38;99100.09;5023577;28;20490;-70
2021/10/08 06:07:10;;;;;;;15.47;13.83;;;9.10;95.40;;;7.89;97.70;99097.75;5027813;28;20450;-70
2021/10/08 06:09:38;;;;;;;17.43;13.23;;;9.10;95.90;;;8.00;97.70;99110.00;5021095;28;20810;-76
2021/10/08 06:12:06;;;;;;;21.47;16.87;;;9.10;96.50;;;8.18;97.34;99107.09;5023239;28;20460;-71
2021/10/08 06:14:33;;;;;;;22.60;18.43;;;9.20;96.50;;;8.19;96.47;99107.94;5015754;28;20479;-72
2021/10/08 06:17:00;;;;;;;23.40;17.27;;;9.30;95.10;;;8.30;94.22;99101.34;5026156;28;20473;-70
2021/10/08 06:19:28;;;;;;;21.00;17.40;;;9.40;93.00;;;8.03;95.49;99109.66;5024501;28;20505;-71
2021/10/08 06:21:55;;;;;;;25.00;19.60;;;9.30;93.50;;;8.49;95.61;99109.00;5024365;28;20512;-70
2021/10/08 06:24:22;;;;;;;16.67;14.57;;;9.50;94.30;;;8.42;94.60;99099.97;5025560;28;20577;-71
2021/10/08 06:26:49;;;;;;;24.00;19.50;;;9.60;93.30;;;8.33;94.31;99103.69;5022866;28;20468;-71
2021/10/08 06:29:17;;;;;;;17.43;15.13;;;9.60;92.30;;;8.25;94.60;99106.38;5024514;28;20490;-71
2021/10/08 06:31:45;;;;;;;19.43;16.27;;;9.50;92.60;;;8.37;93.98;99099.63;5024983;28;20470;-71
2021/10/08 06:34:12;;;;;;;19.60;17.50;;;9.50;92.60;;;8.05;95.60;99110.34;5024254;28;20483;-71
2021/10/08 06:36:40;;;;;;;20.70;16.83;;;9.40;92.80;;;8.11;95.30;99110.66;5021910;28;20482;-71
2021/10/08 06:39:06;;;;;;;20.07;14.40;;;9.40;93.00;;;8.46;95.25;99098.59;5022244;28;20470;-72
2021/10/08 06:41:34;;;;;;;15.33;13.83;;;9.50;93.90;;;8.69;92.38;99103.19;5021186;28;20879;-67
2021/10/08 06:44:01;;;;;;;16.23;14.53;;;9.70;91.80;;;8.21;94.91;99112.13;5018664;28;20558;-71
2021/10/08 06:46:29;;;;;;;19.13;15.97;;;9.60;92.10;;;8.30;95.04;99109.41;5023119;28;20486;-72
2021/10/08 06:48:56;;;;;;;22.77;17.33;;;9.50;92.70;;;8.32;93.49;99110.91;5038246;28;20878;-73
2021/10/08 06:51:23;;;;;;;35.53;23.80;;;9.60;91.80;;;8.32;93.06;99112.78;5021769;28;20466;-70
2021/10/08 06:53:50;;;;;;;48.77;26.60;;;9.50;91.30;;;8.40;93.91;99114.59;5024194;28;20494;-72
2021/10/08 06:56:17;;;;;;;16.17;14.10;;;9.60;91.80;;;8.43;91.78;99109.72;5025936;28;20461;-72
2021/10/08 06:58:44;;;;;;;17.60;13.57;;;9.60;90.30;;;8.37;92.97;99118.47;5026685;28;20455;-71
2021/10/08 07:01:11;;;;;;;13.23;11.77;;;9.60;91.30;;;8.50;92.14;99116.09;5022301;28;20967;-72
2021/10/08 07:03:39;;;;;;;16.07;12.30;;;9.60;91.10;;;8.61;91.85;99122.94;5017901;28;20468;-72
2021/10/08 07:06:07;;;;;;;12.13;10.97;;;9.70;90.90;;;8.54;90.99;99119.28;5019990;28;20485;-72
2021/10/08 07:08:34;;;;;;;13.20;11.77;;;9.70;89.90;;;8.50;91.71;99115.28;5022119;28;20454;-72
2021/10/08 07:11:00;;;;;;;17.30;13.33;;;9.70;90.30;;;8.57;92.69;99121.63;5017429;28;20504;-72
2021/10/08 07:13:27;;;;;;;19.00;12.87;;;9.70;91.30;;;8.63;92.29;99120.09;5023786;28;20504;-73
2021/10/08 07:15:56;;;;;;;17.17;12.40;;;9.80;91.00;;;8.68;91.99;99119.56;5021791;28;20493;-72
2021/10/08 07:18:25;;;;;;;18.43;12.07;;;9.90;90.80;;;8.83;90.06;99119.63;5024304;28;20545;-72
2021/10/08 07:20:56;;;;;;;19.03;12.30;;;9.90;89.30;;;8.77;89.45;99115.78;5023754;28;20454;-72
2021/10/08 07:23:23;;;;;;;19.23;13.10;;;10.00;87.50;;;8.91;90.26;99108.81;5023413;28;20454;-72
2021/10/08 07:25:50;;;;;;;18.47;11.87;;;10.00;88.30;;;9.17;90.22;99115.72;5019804;28;20498;-73
2021/10/08 07:28:18;;;;;;;14.27;12.30;;;10.20;89.70;;;8.99;90.61;99116.03;5025072;28;20461;-72
2021/10/08 07:30:45;;;;;;;13.43;12.03;;;10.20;88.20;;;9.27;89.33;99116.31;5024811;28;20510;-73
2021/10/08 07:33:12;;;;;;;14.97;11.70;;;10.30;87.50;;;9.59;88.57;99114.38;5021888;28;20541;-72
2021/10/08 07:35:39;;;;;;;11.37;10.30;;;10.50;88.40;;;9.72;87.47;99118.31;5019725;28;20508;-75
2021/10/08 07:38:08;;;;;;;11.57;10.47;;;10.70;86.30;;;9.46;87.86;99114.16;5024753;28;20654;-75
2021/10/08 07:40:35;;;;;;;15.47;12.57;;;10.70;85.40;;;9.57;87.97;99116.41;5024937;28;20454;-73
2021/10/08 07:43:02;;;;;;;17.53;11.30;;;10.70;85.60;;;9.61;87.75;99123.13;5029400;28;20466;-73
2021/10/08 07:45:29;;;;;;;12.13;10.93;;;10.80;85.30;;;9.71;86.59;99117.50;5026852;28;20491;-74
2021/10/08 07:47:56;;;;;;;14.23;11.30;;;10.80;83.60;;;9.58;87.03;99118.09;5024387;28;20461;-74
2021/10/08 07:50:23;;;;;;;16.63;10.70;;;10.80;83.60;;;9.63;87.44;99123.81;5025473;28;20560;-73
2021/10/08 07:52:50;;;;;;;15.27;10.27;;;10.80;84.90;;;9.81;85.67;99122.63;5027499;28;20457;-74
2021/10/08 07:55:18;;;;;;;17.57;11.43;;;10.90;84.00;;;9.87;86.19;99126.44;5021488;28;20578;-74
2021/10/08 07:57:46;;;;;;;14.37;10.00;;;11.00;83.90;;;9.94;84.52;99137.34;5025647;28;20533;-72
2021/10/08 08:00:13;;;;;;;12.40;9.00;;;11.10;82.40;;;9.74;84.92;99117.13;5022240;28;20474;-72
2021/10/08 08:02:41;;;;;;;9.97;8.90;;;11.00;81.80;;;9.96;85.09;99127.22;5026907;28;20462;-72
2021/10/08 08:05:08;;;;;;;10.43;9.10;;;11.00;82.60;;;10.03;82.99;99120.03;5027465;28;20798;-73
2021/10/08 08:07:35;;;;;;;13.87;8.83;;;11.10;80.70;;;10.04;82.50;99132.50;5020876;28;21021;-73
2021/10/08 08:10:03;;;;;;;13.67;9.93;;;11.20;80.40;;;10.10;81.98;99126.38;5026548;28;20493;-74
2021/10/08 08:12:32;;;;;;;11.90;9.23;;;11.20;79.80;;;10.19;81.94;99121.72;5022750;28;21079;-73
2021/10/08 08:14:58;;;;;;;9.07;8.20;;;11.30;79.60;;;10.44;81.80;99116.06;5025180;28;20735;-73
2021/10/08 08:17:25;;;;;;;9.90;8.90;;;11.50;79.50;;;10.47;81.44;99121.94;5018774;28;21056;-73
2021/10/08 08:19:52;;;;;;;11.50;8.87;;;11.60;78.90;;;10.82;80.94;99123.19;5024724;28;21851;-74
2021/10/08 08:22:19;;;;;;;11.70;9.03;;;11.80;79.20;;;10.95;80.06;99125.22;5027595;28;20464;-73
2021/10/08 08:24:46;;;;;;;10.60;8.87;;;12.00;78.10;;;10.89;80.46;99124.09;5025640;28;20872;-73
2021/10/08 08:27:13;;;;;;;34.17;13.03;;;12.10;78.00;;;11.13;79.61;99122.06;5022416;28;21009;-73
2021/10/08 08:29:42;;;;;;;9.97;9.07;;;12.20;77.50;;;11.13;78.65;99119.34;5020724;28;20497;-74
2021/10/08 08:32:09;;;;;;;9.43;8.63;;;12.20;76.60;;;10.85;79.61;99117.41;5022144;28;20552;-74
2021/10/08 08:34:36;;;;;;;9.83;8.97;;;12.00;77.00;;;11.13;79.83;99120.19;5018889;28;20483;-75
2021/10/08 08:37:04;;;;;;;9.37;8.17;;;12.10;77.50;;;11.28;78.37;99117.44;5034292;28;20462;-73
2021/10/08 08:39:33;;;;;;;10.30;9.33;;;12.30;76.50;;;11.28;78.89;99117.44;5015439;28;20454;-74
2021/10/08 08:42:00;;;;;;;11.90;10.70;;;12.40;76.60;;;10.98;81.13;99112.13;5036994;28;21019;-74
2021/10/08 08:44:27;;;;;;;11.20;9.63;;;12.30;77.30;;;11.45;78.14;99109.91;5023394;28;20569;-74
2021/10/08 08:46:59;;;;;;;12.20;9.70;;;12.50;76.40;;;11.17;79.54;99115.25;5022740;28;20469;-74
2021/10/08 08:49:26;;;;;;;10.73;9.60;;;12.50;76.30;;;11.48;78.58;99108.69;5026867;28;20450;-75
2021/10/08 08:51:54;;;;;;;10.57;9.67;;;12.60;76.00;;;11.75;77.66;99112.44;5023947;28;20477;-76
2021/10/08 08:54:22;;;;;;;10.50;9.03;;;12.70;76.10;;;12.16;75.89;99108.16;5032888;28;20510;-75
2021/10/08 08:56:49;;;;;;;11.53;10.40;;;13.00;75.10;;;12.06;75.58;99101.44;5017667;28;20458;-74
2021/10/08 08:59:16;;;;;;;12.70;9.40;;;13.10;74.40;;;12.23;76.50;99110.09;5040961;28;20943;-75
2021/10/08 09:02:01;;;;;;;11.33;10.13;;;13.20;75.00;;;12.18;76.26;99116.09;5026138;28;20458;-75
2021/10/08 09:04:29;;;;;;;11.37;9.40;;;13.30;74.20;;;12.18;76.26;99106.09;5017351;28;21100;-74
2021/10/08 09:06:57;;;;;;;12.03;8.63;;;13.40;73.80;;;11.94;77.07;99104.66;5026320;28;20962;-75
2021/10/08 09:09:27;;;;;;;11.00;9.50;;;13.30;73.70;;;12.03;77.50;99114.34;5020247;28;20452;-74
2021/10/08 09:11:56;;;;;;;10.10;9.10;;;13.30;74.10;;;12.30;76.53;99108.25;5020912;28;20220;-75
2021/10/08 09:14:26;;;;;;;10.10;9.13;;;13.40;74.30;;;12.50;76.07;99105.63;5019885;28;20482;-76
2021/10/08 09:17:10;;;;;;;10.80;9.73;;;13.50;73.90;;;12.85;74.19;99100.13;5016745;28;20520;-74
2021/10/08 09:19:51;;;;;;;9.03;8.13;;;13.80;73.40;;;13.10;72.89;99090.59;5023116;28;20508;-74
2021/10/08 09:22:21;;;;;;;9.37;8.50;;;14.00;72.50;;;13.14;73.36;99105.44;5019090;28;20520;-74
2021/10/08 09:24:49;;;;;;;8.80;8.10;;;14.10;72.50;;;13.29;73.20;99102.53;5023654;28;20533;-74
2021/10/08 09:27:23;;;;;;;12.33;9.67;;;14.30;72.20;;;13.32;72.76;99105.66;5025027;28;20458;-73
2021/10/08 09:29:54;;;;;;;10.20;9.30;;;14.40;71.70;;;13.39;73.74;99097.53;5023120;28;20460;-75
2021/10/08 09:32:24;;;;;;;14.00;11.47;;;14.40;72.00;;;13.51;72.17;99091.53;5023575;28;20506;-73
2021/10/08 09:35:06;;;;;;;10.43;9.43;;;14.40;71.10;;;13.73;72.10;99089.44;5020464;28;20485;-70
2021/10/08 09:37:35;;;;;;;10.70;9.60;;;14.60;71.50;;;13.71;71.79;99081.50;5018723;28;20553;-73
2021/10/08 09:40:03;;;;;;;11.53;9.80;;;14.70;70.90;;;13.56;72.34;99097.16;5023566;28;20907;-72
2021/10/08 09:42:34;;;;;;;10.57;9.50;;;14.70;70.80;;;13.65;71.92;99097.78;5034514;28;20546;-78
2021/10/08 09:45:03;;;;;;;10.67;9.47;;;14.80;70.90;;;13.96;71.42;99101.72;5024407;28;20478;-73
2021/10/08 09:47:37;;;;;;;11.23;10.17;;;15.00;70.90;;;14.38;69.45;99107.72;5023659;28;20494;-73
2021/10/08 09:50:11;;;;;;;10.70;9.67;;;15.30;70.10;;;14.18;69.86;99086.00;5024539;28;20454;-74
2021/10/08 09:52:38;;;;;;;15.40;10.30;;;15.30;69.60;;;14.29;69.94;99095.38;5036288;28;20478;-73
2021/10/08 09:55:08;;;;;;;12.80;10.50;;;15.20;69.80;;;14.52;70.13;99102.22;5019227;28;20481;-74
2021/10/08 09:57:57;;;;;;;10.00;9.10;;;15.30;69.90;;;14.61;69.21;99103.63;5018593;28;20466;-75
2021/10/08 10:00:44;;;;;;;10.87;9.20;;;15.60;69.10;;;14.32;69.78;99103.09;5019558;28;20970;-75
2021/10/08 10:03:15;;;;;;;10.90;9.57;;;15.60;68.90;;;14.50;70.64;99097.00;5024590;28;20546;-74
2021/10/08 10:05:43;;;;;;;12.17;10.10;;;15.40;69.80;;;14.93;68.48;99095.56;5022304;28;20476;-74
2021/10/08 10:08:11;;;;;;;10.43;9.40;;;15.80;68.90;;;15.02;67.34;99091.56;5026001;28;20454;-75
2021/10/08 10:10:39;;;;;;;13.27;10.80;;;16.00;68.10;;;15.12;68.32;99090.25;5025369;28;20509;-74
2021/10/08 10:13:08;;;;;;;12.20;11.00;;;16.00;68.60;;;15.38;67.46;99082.94;5024806;28;20486;-72
2021/10/08 10:15:37;;;;;;;11.37;10.23;;;16.20;68.20;;;15.40;66.92;99086.28;5022152;28;20484;-73